createdAt,value
2023-02-03T00:00:31.989Z,68.11
2023-02-03T00:03:24.957Z,68.28
2023-02-03T00:05:58.175Z,68.26
2023-02-03T00:08:30.985Z,68.33
2023-02-03T00:11:03.488Z,68.26
2023-02-03T00:13:37.150Z,68.25
2023-02-03T00:16:10.799Z,68.33
2023-02-03T00:18:43.447Z,68.43
2023-02-03T00:21:16.440Z,68.40
2023-02-03T00:23:49.574Z,68.42
2023-02-03T00:26:26.148Z,68.19
2023-02-03T00:29:00.531Z,67.97
2023-02-03T00:31:33.067Z,67.93
2023-02-03T00:34:05.721Z,67.82
2023-02-03T00:36:38.916Z,67.79
2023-02-03T00:39:11.502Z,67.88
2023-02-03T00:41:44.234Z,67.80
2023-02-03T00:44:17.300Z,67.58
2023-02-03T00:46:51.524Z,67.62
2023-02-03T00:49:24.906Z,67.77
2023-02-03T00:51:57.957Z,67.79
2023-02-03T00:54:32.047Z,67.63
2023-02-03T00:57:05.360Z,67.65
2023-02-03T00:59:38.221Z,67.48
2023-02-03T01:02:10.710Z,67.45
2023-02-03T01:04:43.473Z,67.41
2023-02-03T01:07:16.026Z,67.48
2023-02-03T01:09:48.650Z,67.55
2023-02-03T01:12:21.120Z,67.68
2023-02-03T01:14:53.835Z,67.66
2023-02-03T01:17:26.915Z,67.64
2023-02-03T01:19:59.552Z,67.74
2023-02-03T01:22:34.121Z,67.86
2023-02-03T01:25:07.736Z,67.99
2023-02-03T01:27:40.217Z,67.93
2023-02-03T01:30:14.375Z,67.96
2023-02-03T01:32:47.024Z,67.89
2023-02-03T01:35:19.981Z,67.91
2023-02-03T01:37:52.591Z,68.16
2023-02-03T01:40:25.311Z,68.30
2023-02-03T01:42:58.104Z,68.50
2023-02-03T01:45:30.654Z,68.29
2023-02-03T01:48:03.156Z,68.28
2023-02-03T01:50:38.673Z,68.16
2023-02-03T01:53:14.219Z,68.23
2023-02-03T01:55:50.267Z,68.28
2023-02-03T01:58:26.938Z,68.34
2023-02-03T02:01:00.336Z,68.55
2023-02-03T02:03:37.461Z,68.93
2023-02-03T02:06:12.486Z,68.60
2023-02-03T02:08:49.864Z,68.64
2023-02-03T02:11:24.205Z,68.79
2023-02-03T02:14:01.043Z,68.89
2023-02-03T02:16:45.979Z,68.98
2023-02-03T02:19:46.573Z,68.98
2023-02-03T02:22:30.386Z,69.04
2023-02-03T02:25:29.923Z,68.88
2023-02-03T02:28:33.949Z,68.89
2023-02-03T02:31:27.184Z,68.86
2023-02-03T02:34:06.488Z,68.91
2023-02-03T02:36:51.629Z,68.72
2023-02-03T02:39:30.703Z,68.69
2023-02-03T02:42:14.265Z,68.68
2023-02-03T02:44:53.267Z,68.47
2023-02-03T02:47:26.728Z,68.63
2023-02-03T02:50:04.567Z,68.38
2023-02-03T02:52:42.591Z,68.70
2023-02-03T02:55:24.691Z,68.84
2023-02-03T02:58:02.494Z,68.79
2023-02-03T03:00:37.551Z,69.04
2023-02-03T03:03:21.186Z,68.93
2023-02-03T03:05:57.459Z,68.84
2023-02-03T03:08:37.541Z,68.93
2023-02-03T03:11:10.421Z,68.86
2023-02-03T03:13:48.799Z,68.79
2023-02-03T03:16:25.111Z,68.84
2023-02-03T03:19:02.021Z,68.90
2023-02-03T03:21:48.233Z,68.82
2023-02-03T03:24:26.048Z,68.86
2023-02-03T03:27:04.316Z,68.65
2023-02-03T03:29:41.846Z,68.67
2023-02-03T03:32:14.940Z,68.53
2023-02-03T03:34:47.659Z,68.61
2023-02-03T03:37:26.408Z,68.84
2023-02-03T03:40:01.434Z,68.72
2023-02-03T03:42:40.051Z,68.55
2023-02-03T03:45:20.879Z,68.70
2023-02-03T03:47:58.869Z,68.86
2023-02-03T03:51:25.411Z,68.77
2023-02-03T03:54:01.604Z,68.96
2023-02-03T03:56:40.424Z,69.11
2023-02-03T03:59:16.017Z,69.30
2023-02-03T04:01:49.993Z,69.24
2023-02-03T04:04:22.180Z,68.94
2023-02-03T04:06:55.911Z,69.00
2023-02-03T04:09:29.943Z,69.16
2023-02-03T04:12:02.725Z,69.13
2023-02-03T04:14:39.176Z,69.21
2023-02-03T04:17:12.119Z,69.26
2023-02-03T04:19:44.574Z,69.27
2023-02-03T04:22:17.123Z,69.00
2023-02-03T04:24:49.529Z,68.81
2023-02-03T04:27:22.821Z,68.73
2023-02-03T04:29:55.394Z,68.79
2023-02-03T04:32:28.312Z,68.55
2023-02-03T04:35:00.882Z,68.66
2023-02-03T04:37:34.265Z,68.53
2023-02-03T04:40:08.209Z,68.49
2023-02-03T04:42:41.451Z,68.67
2023-02-03T04:45:15.084Z,69.03
2023-02-03T04:47:54.321Z,69.30
2023-02-03T04:50:27.133Z,69.16
2023-02-03T04:53:00.636Z,69.54
2023-02-03T04:55:33.348Z,69.62
2023-02-03T04:58:06.414Z,69.89
2023-02-03T05:00:39.440Z,69.59
2023-02-03T05:03:12.100Z,70.11
2023-02-03T05:05:44.961Z,70.36
2023-02-03T05:08:17.439Z,70.67
2023-02-03T05:10:49.895Z,71.03
2023-02-03T05:13:24.578Z,71.06
2023-02-03T05:15:57.102Z,71.01
2023-02-03T05:18:29.684Z,71.57
2023-02-03T05:21:02.043Z,71.80
2023-02-03T05:23:36.609Z,72.07
2023-02-03T05:26:08.114Z,72.53
2023-02-03T05:28:40.874Z,72.38
2023-02-03T05:31:13.497Z,72.41
2023-02-03T05:33:45.972Z,72.75
2023-02-03T05:36:18.624Z,73.20
2023-02-03T05:38:51.446Z,73.00
2023-02-03T05:41:41.283Z,73.48
2023-02-03T05:44:14.320Z,73.58
2023-02-03T05:46:46.716Z,73.63
2023-02-03T05:49:20.167Z,73.69
2023-02-03T05:51:58.323Z,74.23
2023-02-03T05:54:35.874Z,74.48
2023-02-03T05:57:08.483Z,74.53
2023-02-03T05:59:41.265Z,74.44
2023-02-03T06:02:14.502Z,74.18
2023-02-03T06:04:47.117Z,74.44
2023-02-03T06:07:19.694Z,74.65
2023-02-03T06:09:52.734Z,75.00
2023-02-03T06:12:29.760Z,75.06
2023-02-03T06:15:04.620Z,75.87
2023-02-03T06:17:38.726Z,75.55
2023-02-03T06:20:16.009Z,75.46
2023-02-03T06:22:49.143Z,75.20
2023-02-03T06:25:27.327Z,75.78
2023-02-03T06:28:00.960Z,76.18
2023-02-03T06:30:35.281Z,76.37
2023-02-03T06:33:09.162Z,76.09
2023-02-03T06:35:43.979Z,76.86
2023-02-03T06:38:16.629Z,76.86
2023-02-03T06:40:54.142Z,76.68
2023-02-03T06:43:27.121Z,76.80
2023-02-03T06:46:01.063Z,77.32
2023-02-03T06:48:37.272Z,77.45
2023-02-03T06:51:12.232Z,77.77
2023-02-03T06:53:45.644Z,77.70
2023-02-03T06:56:19.011Z,78.15
2023-02-03T06:58:54.155Z,78.74
2023-02-03T07:01:27.444Z,78.44
2023-02-03T07:04:00.627Z,78.78
2023-02-03T07:06:34.296Z,78.98
2023-02-03T07:09:08.291Z,79.37
2023-02-03T07:11:41.062Z,79.25
2023-02-03T07:14:13.513Z,79.86
2023-02-03T07:16:46.209Z,79.50
2023-02-03T07:19:19.060Z,79.97
2023-02-03T07:21:51.898Z,79.13
2023-02-03T07:24:24.292Z,78.67
2023-02-03T07:26:57.901Z,79.28
2023-02-03T07:29:30.359Z,80.06
2023-02-03T07:32:03.877Z,79.48
2023-02-03T07:34:36.699Z,79.55
2023-02-03T07:37:09.373Z,80.09
2023-02-03T07:39:42.436Z,80.60
2023-02-03T07:42:14.899Z,80.90
2023-02-03T07:44:47.892Z,80.62
2023-02-03T07:47:20.268Z,80.87
2023-02-03T07:49:52.697Z,80.86
2023-02-03T07:52:25.343Z,81.30
2023-02-03T07:54:58.380Z,81.36
2023-02-03T07:57:30.998Z,81.47
2023-02-03T08:00:03.666Z,81.46
2023-02-03T08:02:45.043Z,81.36
2023-02-03T08:05:18.538Z,80.72
2023-02-03T08:07:51.039Z,80.76
2023-02-03T08:10:24.069Z,80.93
2023-02-03T08:12:57.645Z,80.46
2023-02-03T08:15:30.220Z,81.16
2023-02-03T08:18:03.292Z,81.19
2023-02-03T08:20:36.166Z,80.80
2023-02-03T08:23:09.156Z,80.89
2023-02-03T08:25:42.060Z,81.02
2023-02-03T08:28:14.871Z,81.59
2023-02-03T08:30:47.417Z,81.56
2023-02-03T08:33:20.323Z,80.87
2023-02-03T08:35:53.565Z,81.32
2023-02-03T08:38:26.113Z,81.02
2023-02-03T08:40:58.504Z,81.00
2023-02-03T08:43:30.996Z,81.16
2023-02-03T08:46:07.707Z,81.76
2023-02-03T08:48:40.914Z,82.45
2023-02-03T08:51:18.187Z,82.15
2023-02-03T08:53:50.669Z,81.60
2023-02-03T08:56:24.332Z,81.31
2023-02-03T08:58:57.375Z,80.79
2023-02-03T09:01:29.995Z,80.58
2023-02-03T09:04:04.239Z,79.78
2023-02-03T09:06:37.444Z,79.18
2023-02-03T09:09:10.631Z,79.38
2023-02-03T09:11:43.900Z,79.96
2023-02-03T09:14:16.563Z,80.85
2023-02-03T09:16:49.067Z,81.29
2023-02-03T09:19:21.888Z,81.08
2023-02-03T09:21:54.474Z,80.92
2023-02-03T09:24:27.812Z,80.97
2023-02-03T09:27:01.212Z,81.03
2023-02-03T09:29:34.229Z,81.71
2023-02-03T09:32:10.311Z,82.16
2023-02-03T09:34:43.419Z,82.82
2023-02-03T09:37:16.085Z,83.52
2023-02-03T09:39:49.016Z,83.57
2023-02-03T09:42:36.057Z,83.54
2023-02-03T09:45:21.625Z,83.34
2023-02-03T09:47:56.539Z,82.55
2023-02-03T09:50:29.585Z,82.99
2023-02-03T09:53:09.824Z,83.03
2023-02-03T09:55:45.431Z,83.50
2023-02-03T09:58:21.269Z,83.82
2023-02-03T10:00:57.274Z,83.08
2023-02-03T10:03:36.764Z,82.90
2023-02-03T10:06:32.568Z,83.41
2023-02-03T10:09:37.715Z,83.95
2023-02-03T10:12:32.437Z,84.01
2023-02-03T10:15:22.766Z,83.65
2023-02-03T10:17:58.895Z,83.63
2023-02-03T10:20:37.295Z,84.64
2023-02-03T10:23:14.358Z,83.95
2023-02-03T10:25:57.194Z,83.51
2023-02-03T10:28:38.099Z,83.85
2023-02-03T10:31:20.522Z,83.68
2023-02-03T10:34:02.141Z,83.13
2023-02-03T10:36:44.569Z,83.05
2023-02-03T10:39:25.742Z,83.05
2023-02-03T10:41:58.257Z,83.23
2023-02-03T10:44:38.475Z,83.36
2023-02-03T10:47:23.109Z,83.75
2023-02-03T10:49:58.768Z,83.73
2023-02-03T10:52:34.100Z,83.93
2023-02-03T10:55:31.168Z,83.91
2023-02-03T10:58:15.938Z,84.53
2023-02-03T11:00:53.280Z,84.71
2023-02-03T11:03:27.991Z,84.70
2023-02-03T11:06:12.280Z,85.06
2023-02-03T11:08:46.482Z,85.00
2023-02-03T11:11:25.283Z,84.70
2023-02-03T11:14:13.362Z,85.38
2023-02-03T11:16:47.460Z,85.58
2023-02-03T11:19:22.790Z,85.40
2023-02-03T11:21:57.027Z,85.66
2023-02-03T11:24:33.100Z,86.34
2023-02-03T11:27:08.782Z,86.26
2023-02-03T11:29:44.506Z,87.40
2023-02-03T11:32:24.744Z,88.01
2023-02-03T11:35:01.204Z,88.66
2023-02-03T11:37:36.258Z,88.84
2023-02-03T11:40:30.743Z,89.45
2023-02-03T11:43:06.967Z,89.75
2023-02-03T11:45:42.967Z,90.35
2023-02-03T11:48:30.036Z,90.31
2023-02-03T11:51:14.195Z,89.92
2023-02-03T11:54:03.999Z,89.68
2023-02-03T11:56:51.857Z,90.36
2023-02-03T11:59:51.665Z,91.12
2023-02-03T12:02:49.255Z,90.81
2023-02-03T12:05:41.544Z,92.80
2023-02-03T12:08:29.240Z,94.78
2023-02-03T12:11:13.061Z,96.76
2023-02-03T12:14:01.984Z,98.09
2023-02-03T12:16:55.772Z,98.36
2023-02-03T12:19:39.963Z,97.61
2023-02-03T12:22:23.725Z,97.64
2023-02-03T12:25:09.090Z,96.86
2023-02-03T12:27:50.900Z,97.31
2023-02-03T12:30:30.245Z,97.46
2023-02-03T12:33:07.931Z,96.31
2023-02-03T12:35:52.121Z,95.72
2023-02-03T12:38:33.119Z,95.49
2023-02-03T12:41:12.881Z,95.20
2023-02-03T12:43:49.602Z,94.83
2023-02-03T12:46:27.102Z,94.67
2023-02-03T12:49:07.044Z,94.26
2023-02-03T12:51:44.438Z,94.17
2023-02-03T12:54:30.446Z,93.69
2023-02-03T12:57:15.099Z,93.47
2023-02-03T13:00:00.841Z,93.12
2023-02-03T13:02:39.016Z,92.93
2023-02-03T13:05:21.716Z,92.86
2023-02-03T13:08:00.876Z,92.93
2023-02-03T13:10:40.206Z,93.02
2023-02-03T13:13:17.360Z,92.70
2023-02-03T13:15:53.115Z,89.26
2023-02-03T13:18:30.911Z,87.69
2023-02-03T13:21:03.911Z,86.71
2023-02-03T13:23:36.517Z,86.99
2023-02-03T13:26:21.881Z,87.12
2023-02-03T13:29:23.754Z,87.29
2023-02-03T13:32:10.988Z,87.31
2023-02-03T13:35:01.076Z,87.26
2023-02-03T13:37:54.450Z,87.29
2023-02-03T13:40:39.111Z,87.64
2023-02-03T13:43:32.031Z,88.03
2023-02-03T13:46:20.453Z,88.51
2023-02-03T13:48:55.176Z,88.87
2023-02-03T13:51:34.673Z,89.38
2023-02-03T13:54:10.356Z,88.42
2023-02-03T13:56:45.189Z,88.01
2023-02-03T13:59:33.123Z,86.92
2023-02-03T14:02:35.619Z,85.61
2023-02-03T14:05:33.118Z,84.89
2023-02-03T14:08:53.521Z,85.17
2023-02-03T14:11:50.476Z,84.88
2023-02-03T14:14:44.578Z,85.36
2023-02-03T14:18:03.135Z,84.85
2023-02-03T14:20:53.995Z,84.88
2023-02-03T14:23:30.770Z,84.76
2023-02-03T14:26:04.044Z,84.75
2023-02-03T14:28:44.616Z,85.05
2023-02-03T14:31:21.642Z,85.13
2023-02-03T14:34:14.169Z,85.41
2023-02-03T14:36:53.095Z,85.14
2023-02-03T14:40:00.844Z,84.70
2023-02-03T14:43:10.427Z,84.65
2023-02-03T14:46:01.312Z,84.41
2023-02-03T14:48:47.760Z,84.13
2023-02-03T14:51:32.821Z,83.81
2023-02-03T14:54:22.835Z,83.58
2023-02-03T14:57:17.278Z,83.37
2023-02-03T14:59:52.942Z,83.08
2023-02-03T15:02:27.626Z,82.75
2023-02-03T15:05:31.065Z,82.75
2023-02-03T15:08:03.836Z,82.40
2023-02-03T15:10:46.442Z,81.99
2023-02-03T15:13:30.299Z,81.86
2023-02-03T15:16:06.014Z,81.45
2023-02-03T15:18:40.987Z,81.72
2023-02-03T15:21:18.413Z,81.19
2023-02-03T15:23:52.165Z,81.26
2023-02-03T15:26:26.234Z,80.86
2023-02-03T15:29:01.928Z,80.75
2023-02-03T15:31:39.830Z,80.72
2023-02-03T15:34:21.463Z,80.73
2023-02-03T15:36:57.076Z,80.78
2023-02-03T15:39:40.384Z,80.99
2023-02-03T15:42:22.949Z,80.57
2023-02-03T15:45:01.112Z,81.18
2023-02-03T15:47:40.819Z,81.80
2023-02-03T15:50:30.906Z,82.52
2023-02-03T15:53:10.312Z,83.43
2023-02-03T15:55:48.401Z,83.51
2023-02-03T15:58:23.727Z,83.57
2023-02-03T16:00:59.484Z,83.85
2023-02-03T16:03:38.971Z,83.99
2023-02-03T16:06:18.768Z,84.54
2023-02-03T16:08:52.131Z,84.55
2023-02-03T16:11:27.108Z,84.86
2023-02-03T16:14:01.154Z,84.84
2023-02-03T16:16:39.185Z,84.88
2023-02-03T16:19:17.633Z,85.07
2023-02-03T16:21:57.598Z,85.47
2023-02-03T16:24:46.460Z,85.43
2023-02-03T16:27:34.462Z,84.91
2023-02-03T16:30:43.705Z,85.46
2023-02-03T16:33:37.141Z,85.37
2023-02-03T16:36:32.884Z,85.64
2023-02-03T16:39:28.008Z,85.81
2023-02-03T16:42:25.282Z,85.71
2023-02-03T16:45:17.489Z,85.56
2023-02-03T16:48:07.419Z,85.60
2023-02-03T16:50:52.838Z,85.86
2023-02-03T16:53:27.455Z,86.21
2023-02-03T16:56:01.680Z,86.41
2023-02-03T16:58:34.910Z,85.97
2023-02-03T17:01:09.774Z,86.26
2023-02-03T17:03:44.417Z,85.47
2023-02-03T17:06:16.986Z,85.26
2023-02-03T17:08:49.568Z,85.34
2023-02-03T17:11:24.047Z,85.52
2023-02-03T17:13:56.631Z,85.94
2023-02-03T17:16:30.712Z,86.14
2023-02-03T17:19:03.218Z,85.70
2023-02-03T17:21:35.803Z,85.95
2023-02-03T17:24:08.787Z,85.25
2023-02-03T17:26:41.521Z,85.37
2023-02-03T17:29:14.309Z,85.52
2023-02-03T17:31:46.972Z,85.48
2023-02-03T17:34:19.462Z,85.04
2023-02-03T17:36:51.896Z,85.18
2023-02-03T17:53:35.781Z,85.96
2023-02-03T17:56:13.376Z,86.47
2023-02-03T17:58:46.737Z,86.39
2023-02-03T18:01:21.355Z,86.57
2023-02-03T18:03:55.874Z,86.79
2023-02-03T18:06:29.810Z,86.55
2023-02-03T18:09:02.827Z,87.49
2023-02-03T18:11:36.608Z,87.51
2023-02-03T18:14:11.436Z,87.14
2023-02-03T18:16:45.695Z,86.64
2023-02-03T18:19:18.787Z,86.76
2023-02-03T18:21:51.162Z,87.02
2023-02-03T18:24:27.979Z,87.38
2023-02-03T18:27:02.445Z,87.48
2023-02-03T18:29:34.994Z,87.95
2023-02-03T18:32:08.106Z,88.31
2023-02-03T18:34:40.862Z,88.26
2023-02-03T18:37:14.134Z,88.21
2023-02-03T18:39:49.753Z,87.99
2023-02-03T18:42:22.247Z,88.11
2023-02-03T18:44:54.837Z,88.42
2023-02-03T18:47:27.248Z,88.38
2023-02-03T18:49:59.735Z,88.53
2023-02-03T18:52:32.235Z,88.31
2023-02-03T18:55:05.052Z,88.11
2023-02-03T18:57:38.064Z,87.60
2023-02-03T19:00:14.230Z,87.36
2023-02-03T19:02:49.789Z,87.52
2023-02-03T19:05:22.999Z,87.52
2023-02-03T19:07:55.374Z,88.06
2023-02-03T19:10:28.626Z,88.17
2023-02-03T19:13:01.452Z,88.05
2023-02-03T19:15:34.347Z,87.54
2023-02-03T19:18:07.079Z,86.94
2023-02-03T19:20:39.748Z,86.38
2023-02-03T19:23:12.888Z,86.40
2023-02-03T19:25:45.942Z,86.29
2023-02-03T19:28:29.883Z,86.67
2023-02-03T19:31:09.080Z,87.13
2023-02-03T19:33:42.296Z,87.50
2023-02-03T19:36:16.004Z,87.75
2023-02-03T19:38:48.795Z,87.52
2023-02-03T19:41:21.308Z,87.36
2023-02-03T19:43:54.330Z,87.87
2023-02-03T19:46:27.469Z,87.87
2023-02-03T19:49:00.251Z,87.99
2023-02-03T19:51:33.063Z,87.99
2023-02-03T19:54:05.814Z,88.34
2023-02-03T19:56:38.503Z,88.72
2023-02-03T19:59:11.641Z,88.45
2023-02-03T20:01:44.140Z,88.55
2023-02-03T20:04:16.933Z,88.62
2023-02-03T20:06:50.261Z,88.82
2023-02-03T20:09:23.122Z,88.79
2023-02-03T20:11:56.316Z,88.82
2023-02-03T20:14:28.833Z,88.73
2023-02-03T20:17:03.457Z,88.59
2023-02-03T20:19:36.035Z,88.55
2023-02-03T20:22:08.556Z,88.52
2023-02-03T20:24:40.953Z,88.84
2023-02-03T20:27:13.525Z,88.74
2023-02-03T20:29:47.331Z,87.93
2023-02-03T20:32:20.048Z,86.35
2023-02-03T20:34:52.728Z,85.22
2023-02-03T20:37:25.215Z,84.94
2023-02-03T20:39:57.851Z,84.66
2023-02-03T20:42:30.748Z,84.26
2023-02-03T20:45:06.066Z,84.44
2023-02-03T20:47:39.103Z,84.33
2023-02-03T20:50:18.353Z,84.40
2023-02-03T20:52:53.304Z,84.50
2023-02-03T20:55:26.246Z,84.02
2023-02-03T20:58:01.221Z,83.95
2023-02-03T21:00:34.050Z,83.80
2023-02-03T21:03:24.062Z,83.78
2023-02-03T21:05:58.376Z,83.54
2023-02-03T21:08:32.875Z,83.45
2023-02-03T21:11:10.708Z,83.41
2023-02-03T21:13:45.605Z,83.54
2023-02-03T21:16:20.955Z,83.86
2023-02-03T21:18:55.904Z,82.82
2023-02-03T21:21:35.096Z,82.06
2023-02-03T21:24:24.758Z,81.51
2023-02-03T21:26:58.320Z,80.26
2023-02-03T21:29:35.767Z,79.56
2023-02-03T21:32:15.533Z,79.00
2023-02-03T21:34:49.395Z,78.64
2023-02-03T21:37:44.206Z,78.65
2023-02-03T21:40:26.411Z,78.82
2023-02-03T21:42:59.149Z,79.25
2023-02-03T21:45:40.726Z,78.92
2023-02-03T21:48:34.081Z,79.03
2023-02-03T21:51:17.090Z,78.95
2023-02-03T21:53:55.789Z,78.81
2023-02-03T21:56:31.496Z,78.65
2023-02-03T21:59:04.142Z,78.65
2023-02-03T22:01:39.374Z,78.68
2023-02-03T22:04:11.971Z,78.64
2023-02-03T22:06:49.383Z,78.61
2023-02-03T22:09:24.224Z,78.50
2023-02-03T22:11:56.026Z,79.08
2023-02-03T22:14:28.569Z,79.51
2023-02-03T22:17:01.244Z,79.25
2023-02-03T22:19:34.291Z,79.47
2023-02-03T22:22:06.932Z,79.56
2023-02-03T22:24:39.512Z,79.63
2023-02-03T22:27:12.200Z,79.22
2023-02-03T22:29:45.968Z,79.03
2023-02-03T22:32:18.955Z,79.56
2023-02-03T22:34:51.690Z,79.43
2023-02-03T22:37:24.224Z,79.28
2023-02-03T22:39:56.719Z,79.18
2023-02-03T22:42:29.878Z,79.38
2023-02-03T22:45:02.513Z,79.46
2023-02-03T22:47:35.182Z,80.02
2023-02-03T22:50:09.790Z,80.18
2023-02-03T22:52:40.796Z,79.90
2023-02-03T22:55:13.395Z,80.09
2023-02-03T22:57:45.868Z,80.15
2023-02-03T23:00:22.272Z,80.54
2023-02-03T23:02:55.217Z,80.64
2023-02-03T23:05:28.228Z,80.68
2023-02-03T23:08:00.872Z,80.57
2023-02-03T23:10:33.903Z,80.35
2023-02-03T23:13:07.576Z,80.77
2023-02-03T23:15:40.196Z,81.04
2023-02-03T23:18:12.790Z,81.70
2023-02-03T23:20:45.695Z,81.92
2023-02-03T23:23:18.156Z,81.90
2023-02-03T23:25:50.543Z,81.57
2023-02-03T23:28:23.560Z,81.98
2023-02-03T23:30:57.137Z,82.30
2023-02-03T23:33:30.300Z,82.41
2023-02-03T23:36:03.082Z,81.88
2023-02-03T23:38:36.393Z,79.08
2023-02-03T23:41:09.098Z,78.66
2023-02-03T23:43:41.478Z,78.75
2023-02-03T23:46:14.061Z,77.76
2023-02-03T23:48:46.499Z,77.79
2023-02-03T23:51:19.099Z,78.09
2023-02-03T23:53:52.038Z,78.06
2023-02-03T23:56:27.133Z,78.65
2023-02-03T23:59:00.088Z,78.16
